createdAt,value
2022-11-19T00:00:30.250Z,22.20
2022-11-19T00:01:11.227Z,21.10
2022-11-19T00:01:43.260Z,21.90
2022-11-19T00:02:17.209Z,21.90
2022-11-19T00:02:49.757Z,21.70
2022-11-19T00:03:22.566Z,21.20
2022-11-19T00:03:55.360Z,20.80
2022-11-19T00:04:27.428Z,21.80
2022-11-19T00:04:59.325Z,21.50
2022-11-19T00:05:31.357Z,20.20
2022-11-19T00:06:10.384Z,21.50
2022-11-19T00:06:42.413Z,21.40
2022-11-19T00:07:19.872Z,21.10
2022-11-19T00:07:52.553Z,21.00
2022-11-19T00:08:24.523Z,21.50
2022-11-19T00:08:56.369Z,21.20
2022-11-19T00:09:28.364Z,22.30
2022-11-19T00:10:00.392Z,22.40
2022-11-19T00:10:35.165Z,21.50
2022-11-19T00:11:10.491Z,21.20
2022-11-19T00:12:00.864Z,22.70
2022-11-19T00:12:51.511Z,22.00
2022-11-19T00:13:23.401Z,22.00
2022-11-19T00:13:55.474Z,21.60
2022-11-19T00:14:27.502Z,21.40
2022-11-19T00:14:59.395Z,21.40
2022-11-19T00:15:33.149Z,21.30
2022-11-19T00:16:20.226Z,20.20
2022-11-19T00:16:52.476Z,20.40
2022-11-19T00:17:24.715Z,21.30
2022-11-19T00:17:57.805Z,19.70
2022-11-19T00:18:29.625Z,20.00
2022-11-19T00:19:01.891Z,20.50
2022-11-19T00:19:34.004Z,20.40
2022-11-19T00:20:18.908Z,19.50
2022-11-19T00:20:51.146Z,19.40
2022-11-19T00:21:23.036Z,19.50
2022-11-19T00:21:54.888Z,20.90
2022-11-19T00:22:27.032Z,19.20
2022-11-19T00:22:59.890Z,18.90
2022-11-19T00:23:31.977Z,20.00
2022-11-19T00:24:10.330Z,18.30
2022-11-19T00:24:42.339Z,18.30
2022-11-19T00:25:14.510Z,18.80
2022-11-19T00:25:46.267Z,20.00
2022-11-19T00:26:18.172Z,18.60
2022-11-19T00:26:50.107Z,19.80
2022-11-19T00:27:21.960Z,18.90
2022-11-19T00:28:09.597Z,19.90
2022-11-19T00:28:49.961Z,21.10
2022-11-19T00:29:22.524Z,20.00
2022-11-19T00:29:54.765Z,19.90
2022-11-19T00:30:46.784Z,20.80
2022-11-19T00:31:18.668Z,20.00
2022-11-19T00:31:50.620Z,21.50
2022-11-19T00:32:22.688Z,20.10
2022-11-19T00:32:55.802Z,21.20
2022-11-19T00:33:30.238Z,23.40
2022-11-19T00:34:42.752Z,23.00
2022-11-19T00:35:14.762Z,22.20
2022-11-19T00:35:48.364Z,24.90
2022-11-19T00:36:22.276Z,24.70
2022-11-19T00:36:54.378Z,25.50
2022-11-19T00:37:44.951Z,24.50
2022-11-19T00:38:16.820Z,25.10
2022-11-19T00:38:48.718Z,24.70
2022-11-19T00:39:21.549Z,24.00
2022-11-19T00:39:53.906Z,24.40
2022-11-19T00:40:25.912Z,25.30
2022-11-19T00:40:58.068Z,23.70
2022-11-19T00:41:30.105Z,23.90
2022-11-19T00:42:01.962Z,23.20
2022-11-19T00:42:35.135Z,24.60
2022-11-19T00:43:25.237Z,23.70
2022-11-19T00:43:57.124Z,24.10
2022-11-19T00:44:33.967Z,25.60
2022-11-19T00:45:15.631Z,22.90
2022-11-19T00:45:48.677Z,23.90
2022-11-19T00:46:30.048Z,23.40
2022-11-19T00:47:02.148Z,23.60
2022-11-19T00:47:33.972Z,22.70
2022-11-19T00:48:06.018Z,24.30
2022-11-19T00:48:38.839Z,23.70
2022-11-19T00:49:11.031Z,24.90
2022-11-19T00:49:49.452Z,25.30
2022-11-19T00:50:21.611Z,24.60
2022-11-19T00:50:53.725Z,24.70
2022-11-19T00:51:28.305Z,24.90
2022-11-19T00:52:00.460Z,24.10
2022-11-19T00:52:32.353Z,24.40
2022-11-19T00:53:04.386Z,24.30
2022-11-19T00:53:37.019Z,24.20
2022-11-19T00:54:09.092Z,23.90
2022-11-19T00:54:40.973Z,23.90
2022-11-19T00:55:12.993Z,24.50
2022-11-19T00:55:44.915Z,23.90
2022-11-19T00:56:19.175Z,24.00
2022-11-19T00:56:51.051Z,24.90
2022-11-19T00:57:22.952Z,24.50
2022-11-19T00:57:54.785Z,22.90
2022-11-19T00:58:26.890Z,23.10
2022-11-19T00:58:58.758Z,23.30
2022-11-19T00:59:30.555Z,24.20
2022-11-19T01:00:03.121Z,23.70
2022-11-19T01:00:34.914Z,23.60
2022-11-19T01:01:07.931Z,23.60
2022-11-19T01:01:39.908Z,24.80
2022-11-19T01:02:11.680Z,22.80
2022-11-19T01:02:43.690Z,25.40
2022-11-19T01:03:15.686Z,23.70
2022-11-19T01:03:48.502Z,23.50
2022-11-19T01:04:20.461Z,23.60
2022-11-19T01:04:52.302Z,23.60
2022-11-19T01:05:24.270Z,22.90
2022-11-19T01:05:56.262Z,22.80
2022-11-19T01:06:28.288Z,24.30
2022-11-19T01:07:00.205Z,23.10
2022-11-19T01:07:32.133Z,23.20
2022-11-19T01:08:04.443Z,22.80
2022-11-19T01:08:36.892Z,24.30
2022-11-19T01:09:08.948Z,23.00
2022-11-19T01:09:40.760Z,23.20
2022-11-19T01:10:12.565Z,23.30
2022-11-19T01:10:44.840Z,24.20
2022-11-19T01:11:19.701Z,24.30
2022-11-19T01:11:51.612Z,22.80
2022-11-19T01:12:24.088Z,22.90
2022-11-19T01:13:14.487Z,22.60
2022-11-19T01:13:47.274Z,24.50
2022-11-19T01:14:19.227Z,23.90
2022-11-19T01:14:51.144Z,24.90
2022-11-19T01:15:23.001Z,22.80
2022-11-19T01:15:54.970Z,24.20
2022-11-19T01:16:36.327Z,23.20
2022-11-19T01:17:08.322Z,23.00
2022-11-19T01:17:40.451Z,23.80
2022-11-19T01:18:12.923Z,24.00
2022-11-19T01:18:46.969Z,23.40
2022-11-19T01:19:19.339Z,24.70
2022-11-19T01:19:51.461Z,24.70
2022-11-19T01:20:23.555Z,25.60
2022-11-19T01:20:55.788Z,25.10
2022-11-19T01:21:31.127Z,24.30
2022-11-19T01:22:02.870Z,24.50
2022-11-19T01:22:34.703Z,25.50
2022-11-19T01:23:06.944Z,24.70
2022-11-19T01:23:41.077Z,25.40
2022-11-19T01:24:13.197Z,24.60
2022-11-19T01:24:45.170Z,24.70
2022-11-19T01:25:17.090Z,25.40
2022-11-19T01:25:49.459Z,24.50
2022-11-19T01:26:21.930Z,26.10
2022-11-19T01:26:54.005Z,24.50
2022-11-19T01:27:26.017Z,25.00
2022-11-19T01:27:58.109Z,25.10
2022-11-19T01:28:30.436Z,25.50
2022-11-19T01:29:02.828Z,24.40
2022-11-19T01:29:34.999Z,25.30
2022-11-19T01:30:08.158Z,27.10
2022-11-19T01:30:42.416Z,26.40
2022-11-19T01:31:28.605Z,26.10
2022-11-19T01:32:00.496Z,25.80
2022-11-19T01:32:32.534Z,25.40
2022-11-19T01:33:04.510Z,25.40
2022-11-19T01:33:37.617Z,26.50
2022-11-19T01:34:09.443Z,25.40
2022-11-19T01:34:42.765Z,26.10
2022-11-19T01:35:15.284Z,26.90
2022-11-19T01:36:01.460Z,26.80
2022-11-19T01:36:33.251Z,25.70
2022-11-19T01:37:05.253Z,26.10
2022-11-19T01:37:37.148Z,27.40
2022-11-19T01:38:09.094Z,25.80
2022-11-19T01:38:41.443Z,26.80
2022-11-19T01:39:13.409Z,28.00
2022-11-19T01:39:45.249Z,27.90
2022-11-19T01:40:17.235Z,25.10
2022-11-19T01:40:49.145Z,27.70
2022-11-19T01:41:24.734Z,27.90
2022-11-19T01:41:56.672Z,27.40
2022-11-19T01:42:49.121Z,26.80
2022-11-19T01:43:40.384Z,26.40
2022-11-19T01:45:07.154Z,27.30
2022-11-19T01:45:48.356Z,25.70
2022-11-19T01:46:23.979Z,28.30
2022-11-19T01:46:55.763Z,26.20
2022-11-19T01:47:27.976Z,26.80
2022-11-19T01:48:08.513Z,26.10
2022-11-19T01:48:44.675Z,25.20
2022-11-19T01:49:19.380Z,25.60
2022-11-19T01:49:51.550Z,26.00
2022-11-19T01:50:25.085Z,26.70
2022-11-19T01:51:01.705Z,26.70
2022-11-19T01:51:36.564Z,26.00
2022-11-19T01:52:08.482Z,25.50
2022-11-19T01:52:40.608Z,26.30
2022-11-19T01:53:13.043Z,26.00
2022-11-19T01:53:48.629Z,26.20
2022-11-19T01:54:26.499Z,25.00
2022-11-19T01:54:58.942Z,25.70
2022-11-19T01:55:31.180Z,25.60
2022-11-19T01:56:06.364Z,25.90
2022-11-19T01:56:38.626Z,26.90
2022-11-19T01:57:14.611Z,25.20
2022-11-19T01:57:53.880Z,24.10
2022-11-19T01:58:26.003Z,23.10
2022-11-19T01:59:13.610Z,23.90
2022-11-19T01:59:50.716Z,23.30
2022-11-19T02:00:23.119Z,23.30
2022-11-19T02:00:55.148Z,23.00
2022-11-19T02:01:28.731Z,22.80
2022-11-19T02:02:00.754Z,22.50
2022-11-19T02:02:33.633Z,21.70
2022-11-19T02:03:05.601Z,22.50
2022-11-19T02:03:39.143Z,21.50
2022-11-19T02:04:13.498Z,20.90
2022-11-19T02:04:46.120Z,20.50
2022-11-19T02:05:18.317Z,20.70
2022-11-19T02:05:50.990Z,21.30
2022-11-19T02:06:23.013Z,19.30
2022-11-19T02:06:55.963Z,20.00
2022-11-19T02:07:31.651Z,20.40
2022-11-19T02:08:07.413Z,20.40
2022-11-19T02:08:45.065Z,19.90
2022-11-19T02:09:17.652Z,19.40
2022-11-19T02:09:50.255Z,19.80
2022-11-19T02:10:57.692Z,19.20
2022-11-19T02:11:29.624Z,18.90
2022-11-19T02:12:23.395Z,18.00
2022-11-19T02:13:16.131Z,17.70
2022-11-19T02:14:19.218Z,18.40
2022-11-19T02:15:19.008Z,18.00
2022-11-19T02:15:57.190Z,18.70
2022-11-19T02:16:52.078Z,18.30
2022-11-19T02:17:42.377Z,19.00
2022-11-19T02:18:25.985Z,18.30
2022-11-19T02:19:32.473Z,18.10
2022-11-19T02:20:32.134Z,17.90
2022-11-19T02:21:07.250Z,17.20
2022-11-19T02:21:44.780Z,16.30
2022-11-19T02:22:44.318Z,18.90
2022-11-19T02:23:31.659Z,16.70
2022-11-19T02:24:39.890Z,16.50
2022-11-19T02:25:18.400Z,16.80
2022-11-19T02:26:27.432Z,15.40
2022-11-19T02:27:25.413Z,17.30
2022-11-19T02:28:23.766Z,17.60
2022-11-19T02:29:14.002Z,15.00
2022-11-19T02:30:13.402Z,16.60
2022-11-19T02:30:52.311Z,15.90
2022-11-19T02:31:31.009Z,17.00
2022-11-19T02:32:06.910Z,15.70
2022-11-19T02:33:03.413Z,17.10
2022-11-19T02:33:49.159Z,16.20
2022-11-19T02:34:38.134Z,16.60
2022-11-19T02:35:30.258Z,15.10
2022-11-19T02:36:08.085Z,15.10
2022-11-19T02:36:58.143Z,14.60
2022-11-19T02:37:55.704Z,14.70
2022-11-19T02:38:34.583Z,15.50
2022-11-19T02:39:16.930Z,15.70
2022-11-19T02:39:54.175Z,15.10
2022-11-19T02:40:32.097Z,15.70
2022-11-19T02:41:37.194Z,15.60
2022-11-19T02:42:25.090Z,15.20
2022-11-19T02:43:21.850Z,15.10
2022-11-19T02:44:20.644Z,15.00
2022-11-19T02:44:59.273Z,16.20
2022-11-19T02:45:47.486Z,15.00
2022-11-19T02:46:19.847Z,14.90
2022-11-19T02:46:53.423Z,15.30
2022-11-19T02:47:30.376Z,14.90
2022-11-19T02:48:41.477Z,14.80
2022-11-19T02:49:16.205Z,15.70
2022-11-19T02:49:51.694Z,14.60
2022-11-19T02:50:41.908Z,14.70
2022-11-19T02:51:16.174Z,15.90
2022-11-19T02:51:49.868Z,16.20
2022-11-19T02:52:22.020Z,15.40
2022-11-19T02:52:54.351Z,15.50
2022-11-19T02:53:26.452Z,15.80
2022-11-19T02:53:58.555Z,16.20
2022-11-19T02:54:30.604Z,15.10
2022-11-19T02:55:02.432Z,15.20
2022-11-19T02:55:36.306Z,14.70
2022-11-19T02:56:48.300Z,15.40
2022-11-19T02:58:04.501Z,15.90
2022-11-19T02:59:10.006Z,16.00
2022-11-19T03:00:17.468Z,16.70
2022-11-19T03:01:08.366Z,15.60
2022-11-19T03:02:04.215Z,17.00
2022-11-19T03:03:01.303Z,17.40
2022-11-19T03:03:52.671Z,18.00
2022-11-19T03:04:29.929Z,19.00
2022-11-19T03:05:06.506Z,17.90
2022-11-19T03:05:44.918Z,18.20
2022-11-19T03:06:26.383Z,19.30
2022-11-19T03:07:06.665Z,19.20
2022-11-19T03:07:40.020Z,18.40
2022-11-19T03:08:12.701Z,18.50
2022-11-19T03:08:46.158Z,18.20
2022-11-19T03:09:19.038Z,18.10
2022-11-19T03:10:02.445Z,18.20
2022-11-19T03:11:12.529Z,19.20
2022-11-19T03:11:51.717Z,17.70
2022-11-19T03:12:45.540Z,17.70
2022-11-19T03:13:41.786Z,18.20
2022-11-19T03:14:52.282Z,17.10
2022-11-19T03:16:05.620Z,18.10
2022-11-19T03:16:41.069Z,18.00
2022-11-19T03:17:17.602Z,19.60
2022-11-19T03:18:11.196Z,19.60
2022-11-19T03:19:02.257Z,18.50
2022-11-19T03:19:43.967Z,18.70
2022-11-19T03:20:24.585Z,18.70
2022-11-19T03:21:18.878Z,20.20
2022-11-19T03:21:53.485Z,19.50
2022-11-19T03:22:32.633Z,19.90
2022-11-19T03:23:21.708Z,19.80
2022-11-19T03:24:11.158Z,21.50
2022-11-19T03:24:48.248Z,20.80
2022-11-19T03:25:32.115Z,20.80
2022-11-19T03:26:15.031Z,20.80
2022-11-19T03:26:54.065Z,20.60
2022-11-19T03:27:35.893Z,19.80
2022-11-19T03:28:13.088Z,19.50
2022-11-19T03:28:47.945Z,20.40
2022-11-19T03:29:23.182Z,20.70
2022-11-19T03:29:59.358Z,21.00
2022-11-19T03:30:32.141Z,21.60
2022-11-19T03:31:06.333Z,21.00
2022-11-19T03:31:40.426Z,20.30
2022-11-19T03:32:37.254Z,20.20
2022-11-19T03:33:26.470Z,20.90
2022-11-19T03:34:07.609Z,20.40
2022-11-19T03:34:43.370Z,21.00
2022-11-19T03:35:27.400Z,20.00
2022-11-19T03:36:05.311Z,20.60
2022-11-19T03:36:40.442Z,19.90
2022-11-19T03:37:17.116Z,21.10
2022-11-19T03:37:53.943Z,19.80
2022-11-19T03:38:41.989Z,18.80
2022-11-19T03:39:18.232Z,20.10
2022-11-19T03:39:51.391Z,19.20
2022-11-19T03:40:24.968Z,19.60
2022-11-19T03:40:57.682Z,20.50
2022-11-19T03:41:31.557Z,20.30
2022-11-19T03:42:08.145Z,21.30
2022-11-19T03:42:43.521Z,20.90
2022-11-19T03:43:19.656Z,21.80
2022-11-19T03:43:56.194Z,19.70
2022-11-19T03:44:50.301Z,20.10
2022-11-19T03:45:29.468Z,20.80
2022-11-19T03:46:03.598Z,21.60
2022-11-19T03:46:37.889Z,21.40
2022-11-19T03:47:14.759Z,21.20
2022-11-19T03:47:49.856Z,21.80
2022-11-19T03:48:23.486Z,21.40
2022-11-19T03:48:56.923Z,21.60
2022-11-19T03:49:36.928Z,23.90
2022-11-19T03:50:34.805Z,20.60
2022-11-19T03:51:21.151Z,20.30
2022-11-19T03:52:02.529Z,21.30
2022-11-19T03:52:34.332Z,20.60
2022-11-19T03:53:06.311Z,21.80
2022-11-19T03:53:38.392Z,20.10
2022-11-19T03:54:10.320Z,21.10
2022-11-19T03:54:42.807Z,19.30
2022-11-19T03:55:15.864Z,20.10
2022-11-19T03:56:10.868Z,21.10
2022-11-19T03:56:45.256Z,19.30
2022-11-19T03:57:20.719Z,19.50
2022-11-19T03:57:52.492Z,19.60
2022-11-19T03:58:26.248Z,19.20
2022-11-19T03:58:58.701Z,19.50
2022-11-19T03:59:30.991Z,19.70
2022-11-19T04:00:04.670Z,20.50
2022-11-19T04:00:36.471Z,20.10
2022-11-19T04:01:08.542Z,20.30
2022-11-19T04:01:40.806Z,20.20
2022-11-19T04:02:13.729Z,20.90
2022-11-19T04:02:45.655Z,19.90
2022-11-19T04:03:17.590Z,20.40
2022-11-19T04:04:08.126Z,20.90
2022-11-19T04:04:40.494Z,19.80
2022-11-19T04:05:12.569Z,20.40
2022-11-19T04:05:44.656Z,20.00
2022-11-19T04:06:16.502Z,20.40
2022-11-19T04:06:48.353Z,19.20
2022-11-19T04:07:22.555Z,20.40
2022-11-19T04:07:54.541Z,20.10
2022-11-19T04:08:26.421Z,19.50
2022-11-19T04:08:58.349Z,18.90
2022-11-19T04:09:30.255Z,19.60
2022-11-19T04:10:02.736Z,18.80
2022-11-19T04:10:34.957Z,18.20
2022-11-19T04:11:39.047Z,18.80
2022-11-19T04:12:22.183Z,19.80
2022-11-19T04:12:53.963Z,19.40
2022-11-19T04:13:25.858Z,19.20
2022-11-19T04:13:57.859Z,18.90
2022-11-19T04:14:29.898Z,20.10
2022-11-19T04:15:01.708Z,18.40
2022-11-19T04:15:33.687Z,18.70
2022-11-19T04:16:05.807Z,18.10
2022-11-19T04:16:37.917Z,17.90
2022-11-19T04:17:10.249Z,18.80
2022-11-19T04:17:42.152Z,19.00
2022-11-19T04:18:13.991Z,17.90
2022-11-19T04:18:45.784Z,18.20
2022-11-19T04:19:18.078Z,19.50
2022-11-19T04:19:50.404Z,19.20
2022-11-19T04:20:22.406Z,19.10
2022-11-19T04:20:54.523Z,19.30
2022-11-19T04:21:26.613Z,19.40
2022-11-19T04:21:58.502Z,18.90
2022-11-19T04:22:30.303Z,19.60
2022-11-19T04:23:02.199Z,19.50
2022-11-19T04:23:33.915Z,19.10
2022-11-19T04:24:06.252Z,20.10
2022-11-19T04:24:38.222Z,20.00
2022-11-19T04:25:10.118Z,20.70
2022-11-19T04:25:46.259Z,20.40
2022-11-19T04:26:18.289Z,19.90
2022-11-19T04:26:50.123Z,20.50
2022-11-19T04:27:22.090Z,19.30
2022-11-19T04:27:53.975Z,20.40
2022-11-19T04:28:25.952Z,18.80
2022-11-19T04:28:57.820Z,19.50
2022-11-19T04:29:29.747Z,19.50
2022-11-19T04:30:01.757Z,19.20
2022-11-19T04:30:33.839Z,18.90
2022-11-19T04:31:05.859Z,19.50
2022-11-19T04:31:37.849Z,19.30
2022-11-19T04:32:09.796Z,19.40
2022-11-19T04:32:42.441Z,20.40
2022-11-19T04:33:14.355Z,19.10
2022-11-19T04:33:46.137Z,19.80
2022-11-19T04:34:18.120Z,18.80
2022-11-19T04:34:49.926Z,18.20
2022-11-19T04:35:21.794Z,18.40
2022-11-19T04:35:53.757Z,19.10
2022-11-19T04:36:25.510Z,18.80
2022-11-19T04:36:57.430Z,18.00
2022-11-19T04:37:29.257Z,19.00
2022-11-19T04:38:01.164Z,18.70
2022-11-19T04:38:34.294Z,19.50
2022-11-19T04:39:06.207Z,18.60
2022-11-19T04:39:37.968Z,20.70
2022-11-19T04:40:10.460Z,19.10
2022-11-19T04:40:42.263Z,20.10
2022-11-19T04:41:14.107Z,19.80
2022-11-19T04:41:45.988Z,20.70
2022-11-19T04:42:17.898Z,20.40
2022-11-19T04:42:50.323Z,19.80
2022-11-19T04:43:22.174Z,21.20
2022-11-19T04:43:54.025Z,19.50
2022-11-19T04:44:25.849Z,19.20
2022-11-19T04:44:58.185Z,19.50
2022-11-19T04:45:29.962Z,19.20
2022-11-19T04:46:01.803Z,20.10
2022-11-19T04:46:33.929Z,19.10
2022-11-19T04:47:05.835Z,19.10
2022-11-19T04:47:37.664Z,20.70
2022-11-19T04:48:09.572Z,20.40
2022-11-19T04:48:41.558Z,18.60
2022-11-19T04:49:13.526Z,21.00
2022-11-19T04:49:45.263Z,19.50
2022-11-19T04:50:17.116Z,19.90
2022-11-19T04:50:48.996Z,18.50
2022-11-19T04:51:21.184Z,19.90
2022-11-19T04:51:53.278Z,19.30
2022-11-19T04:52:25.218Z,19.40
2022-11-19T04:52:58.512Z,19.90
2022-11-19T04:53:30.455Z,20.40
2022-11-19T04:54:02.528Z,20.10
2022-11-19T04:54:34.375Z,19.70
2022-11-19T04:55:06.345Z,19.70
2022-11-19T04:55:38.288Z,19.00
2022-11-19T04:56:10.248Z,19.00
2022-11-19T04:56:42.176Z,17.70
2022-11-19T04:57:14.114Z,18.20
2022-11-19T04:57:46.142Z,18.10
2022-11-19T04:58:17.963Z,18.30
2022-11-19T04:58:49.830Z,18.70
2022-11-19T04:59:21.984Z,17.70
2022-11-19T04:59:54.184Z,17.50
2022-11-19T05:00:26.255Z,17.90
2022-11-19T05:00:58.039Z,17.80
2022-11-19T05:01:30.012Z,18.90
2022-11-19T05:02:02.021Z,18.50
2022-11-19T05:02:34.072Z,17.70
2022-11-19T05:03:05.965Z,19.10
2022-11-19T05:03:37.909Z,18.80
2022-11-19T05:04:09.882Z,17.80
2022-11-19T05:04:41.772Z,18.50
2022-11-19T05:05:13.731Z,19.00
2022-11-19T05:05:45.953Z,19.70
2022-11-19T05:06:17.944Z,18.50
2022-11-19T05:06:49.744Z,18.00
2022-11-19T05:07:21.668Z,18.30
2022-11-19T05:07:53.524Z,18.90
2022-11-19T05:08:27.410Z,19.00
2022-11-19T05:09:00.432Z,18.40
2022-11-19T05:09:32.255Z,18.60
2022-11-19T05:10:04.893Z,18.50
2022-11-19T05:10:36.746Z,18.40
2022-11-19T05:11:08.713Z,18.10
2022-11-19T05:11:40.557Z,17.50
2022-11-19T05:12:12.252Z,17.30
2022-11-19T05:12:44.146Z,15.30
2022-11-19T05:13:15.973Z,15.90
2022-11-19T05:13:47.666Z,16.20
2022-11-19T05:14:19.604Z,16.90
2022-11-19T05:14:51.433Z,16.50
2022-11-19T05:15:23.386Z,16.70
2022-11-19T05:15:55.270Z,17.20
2022-11-19T05:16:27.358Z,16.80
2022-11-19T05:16:59.023Z,17.10
2022-11-19T05:17:31.093Z,17.60
2022-11-19T05:18:03.079Z,17.20
2022-11-19T05:18:35.261Z,16.60
2022-11-19T05:19:07.145Z,17.60
2022-11-19T05:19:39.061Z,17.40
2022-11-19T05:20:11.083Z,17.20
2022-11-19T05:20:42.981Z,16.70
2022-11-19T05:21:14.785Z,17.50
2022-11-19T05:21:46.644Z,16.40
2022-11-19T05:22:18.523Z,17.40
2022-11-19T05:22:50.427Z,16.10
2022-11-19T05:23:23.787Z,16.10
2022-11-19T05:23:55.558Z,16.60
2022-11-19T05:24:27.388Z,17.00
2022-11-19T05:24:59.154Z,17.00
2022-11-19T05:25:31.197Z,15.00
2022-11-19T05:26:03.313Z,15.60
2022-11-19T05:26:35.159Z,15.20
2022-11-19T05:27:07.191Z,15.90
2022-11-19T05:27:39.022Z,16.10
2022-11-19T05:28:10.935Z,15.70
2022-11-19T05:28:42.827Z,15.30
2022-11-19T05:29:14.900Z,14.60
2022-11-19T05:29:46.707Z,14.90
2022-11-19T05:30:18.599Z,15.90
2022-11-19T05:30:54.102Z,15.30
2022-11-19T05:31:25.814Z,14.40
2022-11-19T05:31:57.698Z,15.60
2022-11-19T05:32:29.849Z,15.90
2022-11-19T05:33:01.731Z,14.80
2022-11-19T05:33:34.435Z,14.80
2022-11-19T05:34:06.799Z,14.40
2022-11-19T05:34:38.758Z,14.10
2022-11-19T05:35:10.703Z,15.90
2022-11-19T05:35:42.690Z,14.90
2022-11-19T05:36:14.447Z,15.10
2022-11-19T05:36:46.532Z,16.00
2022-11-19T05:37:18.442Z,16.10
2022-11-19T05:37:50.736Z,14.80
2022-11-19T05:38:22.583Z,15.40
2022-11-19T05:38:54.536Z,15.40
2022-11-19T05:39:26.741Z,14.30
2022-11-19T05:39:58.816Z,14.30
2022-11-19T05:40:30.767Z,14.50
2022-11-19T05:41:02.674Z,14.90
2022-11-19T05:41:34.533Z,15.10
2022-11-19T05:42:06.524Z,14.50
2022-11-19T05:42:38.526Z,13.70
2022-11-19T05:43:10.467Z,14.30
2022-11-19T05:43:42.307Z,15.20
2022-11-19T05:44:14.073Z,15.00
2022-11-19T05:44:46.200Z,15.30
2022-11-19T05:45:18.320Z,15.80
2022-11-19T05:45:50.258Z,16.00
2022-11-19T05:46:22.338Z,15.50
2022-11-19T05:46:56.326Z,15.60
2022-11-19T05:47:28.494Z,15.20
2022-11-19T05:48:00.600Z,15.30
2022-11-19T05:48:32.473Z,15.40
2022-11-19T05:49:04.406Z,15.10
2022-11-19T05:49:36.339Z,16.30
2022-11-19T05:50:08.800Z,15.60
2022-11-19T05:50:42.182Z,16.50
2022-11-19T05:51:15.433Z,16.50
2022-11-19T05:51:47.356Z,15.10
2022-11-19T05:52:19.241Z,15.00
2022-11-19T05:52:51.138Z,16.00
2022-11-19T05:53:23.261Z,16.30
2022-11-19T05:53:55.052Z,15.10
2022-11-19T05:54:27.099Z,14.10
2022-11-19T05:54:58.978Z,14.50
2022-11-19T05:55:31.510Z,13.90
2022-11-19T05:56:03.591Z,15.10
2022-11-19T05:56:35.543Z,16.10
2022-11-19T05:57:07.510Z,15.50
2022-11-19T05:57:39.367Z,15.80
2022-11-19T05:58:13.240Z,15.70
2022-11-19T05:58:45.199Z,13.90
2022-11-19T05:59:18.056Z,14.60
2022-11-19T05:59:50.009Z,14.10
2022-11-19T06:00:21.992Z,14.20
2022-11-19T06:00:59.054Z,15.80
2022-11-19T06:01:31.072Z,14.30
2022-11-19T06:02:02.931Z,15.10
2022-11-19T06:02:34.880Z,15.60
2022-11-19T06:03:07.060Z,15.00
2022-11-19T06:03:40.181Z,14.60
2022-11-19T06:04:12.142Z,14.00
2022-11-19T06:04:44.348Z,14.50
2022-11-19T06:05:16.479Z,15.70
2022-11-19T06:05:48.458Z,16.00
2022-11-19T06:06:20.840Z,13.70
2022-11-19T06:06:52.664Z,14.20
2022-11-19T06:07:24.504Z,14.70
2022-11-19T06:07:56.373Z,16.40
2022-11-19T06:08:28.397Z,16.80
2022-11-19T06:09:00.701Z,16.90
2022-11-19T06:09:32.641Z,16.00
2022-11-19T06:10:05.147Z,15.70
2022-11-19T06:10:37.042Z,16.20
2022-11-19T06:11:29.145Z,16.10
2022-11-19T06:12:01.392Z,17.30
2022-11-19T06:12:33.295Z,17.10
2022-11-19T06:13:05.198Z,17.70
2022-11-19T06:13:37.020Z,17.10
2022-11-19T06:14:08.784Z,16.40
2022-11-19T06:14:41.545Z,16.40
2022-11-19T06:15:14.239Z,15.10
2022-11-19T06:15:46.588Z,15.30
2022-11-19T06:16:18.520Z,16.10
2022-11-19T06:16:55.774Z,17.50
2022-11-19T06:17:28.529Z,19.70
2022-11-19T06:18:00.663Z,18.20
2022-11-19T06:18:32.750Z,19.30
2022-11-19T06:19:04.622Z,18.30
2022-11-19T06:19:36.633Z,17.00
2022-11-19T06:20:10.550Z,16.30
2022-11-19T06:20:42.580Z,16.50
2022-11-19T06:21:14.474Z,16.60
2022-11-19T06:21:47.004Z,16.80
2022-11-19T06:22:18.853Z,15.40
2022-11-19T06:22:51.531Z,15.90
2022-11-19T06:23:23.690Z,16.80
2022-11-19T06:23:55.572Z,16.30
2022-11-19T06:24:27.486Z,15.60
2022-11-19T06:24:59.407Z,16.60
2022-11-19T06:25:31.345Z,15.80
2022-11-19T06:26:03.193Z,15.70
2022-11-19T06:26:35.418Z,15.60
2022-11-19T06:27:07.387Z,15.70
2022-11-19T06:27:39.323Z,15.80
2022-11-19T06:28:11.234Z,16.40
2022-11-19T06:28:43.092Z,15.00
2022-11-19T06:29:16.860Z,15.50
2022-11-19T06:29:53.506Z,16.10
2022-11-19T06:30:28.079Z,15.80
2022-11-19T06:31:00.087Z,15.20
2022-11-19T06:31:32.293Z,15.90
2022-11-19T06:32:04.496Z,15.70
2022-11-19T06:32:36.507Z,15.50
2022-11-19T06:33:08.303Z,16.20
2022-11-19T06:33:40.262Z,15.80
2022-11-19T06:34:12.262Z,16.60
2022-11-19T06:34:46.664Z,17.20
2022-11-19T06:35:18.469Z,16.20
2022-11-19T06:35:50.361Z,16.60
2022-11-19T06:36:24.382Z,15.90
2022-11-19T06:36:59.747Z,15.50
2022-11-19T06:37:31.729Z,15.50
2022-11-19T06:38:03.666Z,15.10
2022-11-19T06:38:35.648Z,15.10
2022-11-19T06:39:07.649Z,15.60
2022-11-19T06:39:39.493Z,15.30
2022-11-19T06:40:12.084Z,14.50
2022-11-19T06:40:46.930Z,15.40
2022-11-19T06:41:19.138Z,14.30
2022-11-19T06:41:51.074Z,15.00
2022-11-19T06:42:37.904Z,13.40
2022-11-19T06:43:09.649Z,13.90
2022-11-19T06:43:42.631Z,14.10
2022-11-19T06:44:14.358Z,13.30
2022-11-19T06:44:46.237Z,13.80
2022-11-19T06:45:18.384Z,14.60
2022-11-19T06:45:50.203Z,14.80
2022-11-19T06:46:22.306Z,14.80
2022-11-19T06:46:54.469Z,14.30
2022-11-19T06:47:26.544Z,14.00
2022-11-19T06:47:58.496Z,16.10
2022-11-19T06:48:30.560Z,15.70
2022-11-19T06:49:05.223Z,15.80
2022-11-19T06:49:37.305Z,14.00
2022-11-19T06:50:10.265Z,15.20
2022-11-19T06:50:43.911Z,14.80
2022-11-19T06:51:15.933Z,16.00
2022-11-19T06:51:47.882Z,15.90
2022-11-19T06:52:19.798Z,14.50
2022-11-19T06:52:51.727Z,13.90
2022-11-19T06:53:23.671Z,13.90
2022-11-19T06:53:55.581Z,13.40
2022-11-19T06:54:27.677Z,12.80
2022-11-19T06:54:59.809Z,14.70
2022-11-19T06:55:31.733Z,14.50
2022-11-19T06:56:06.268Z,14.20
2022-11-19T06:56:38.056Z,14.20
2022-11-19T06:57:10.070Z,13.80
2022-11-19T06:57:41.854Z,15.20
2022-11-19T06:58:16.702Z,14.60
2022-11-19T06:58:49.032Z,14.70
2022-11-19T06:59:21.602Z,15.10
2022-11-19T06:59:53.818Z,14.60
2022-11-19T07:00:25.884Z,15.80
2022-11-19T07:00:57.854Z,16.00
2022-11-19T07:01:29.876Z,15.60
2022-11-19T07:02:01.993Z,15.70
2022-11-19T07:02:33.780Z,16.90
2022-11-19T07:03:05.825Z,16.20
2022-11-19T07:03:37.863Z,15.10
2022-11-19T07:04:10.248Z,15.90
2022-11-19T07:04:42.202Z,16.40
2022-11-19T07:05:14.215Z,17.60
2022-11-19T07:05:50.733Z,18.80
2022-11-19T07:06:22.686Z,18.90
2022-11-19T07:06:54.781Z,19.80
2022-11-19T07:07:27.212Z,19.60
2022-11-19T07:08:03.004Z,19.60
2022-11-19T07:08:37.431Z,18.90
2022-11-19T07:09:09.702Z,19.70
2022-11-19T07:09:41.788Z,23.20
2022-11-19T07:10:13.599Z,25.30
2022-11-19T07:10:45.503Z,24.70
2022-11-19T07:11:26.265Z,22.80
2022-11-19T07:12:30.508Z,22.60
2022-11-19T07:13:02.597Z,21.40
2022-11-19T07:13:53.056Z,21.20
2022-11-19T07:14:25.284Z,19.70
2022-11-19T07:15:01.199Z,19.00
2022-11-19T07:15:35.991Z,18.00
2022-11-19T07:16:08.257Z,17.20
2022-11-19T07:16:40.311Z,18.00
2022-11-19T07:17:12.243Z,15.40
2022-11-19T07:17:44.515Z,16.60
2022-11-19T07:18:16.448Z,16.50
2022-11-19T07:18:48.410Z,14.40
2022-11-19T07:19:20.540Z,15.70
2022-11-19T07:19:52.888Z,15.90
2022-11-19T07:20:25.050Z,15.10
2022-11-19T07:20:57.094Z,15.30
2022-11-19T07:21:29.868Z,14.50
2022-11-19T07:22:01.830Z,15.50
2022-11-19T07:22:34.009Z,14.60
2022-11-19T07:23:10.108Z,14.60
2022-11-19T07:23:41.996Z,16.00
2022-11-19T07:24:16.576Z,16.50
2022-11-19T07:24:48.665Z,14.70
2022-11-19T07:25:21.018Z,15.60
2022-11-19T07:25:53.227Z,16.80
2022-11-19T07:26:25.639Z,17.80
2022-11-19T07:26:57.856Z,16.20
2022-11-19T07:27:29.970Z,16.50
2022-11-19T07:28:02.065Z,17.40
2022-11-19T07:28:34.204Z,18.20
2022-11-19T07:29:07.836Z,17.80
2022-11-19T07:29:39.733Z,17.50
2022-11-19T07:30:11.942Z,18.20
2022-11-19T07:30:43.899Z,16.00
2022-11-19T07:31:15.741Z,16.90
2022-11-19T07:31:50.035Z,16.80
2022-11-19T07:32:22.158Z,16.10
2022-11-19T07:32:54.289Z,16.40
2022-11-19T07:33:26.293Z,15.90
2022-11-19T07:33:58.585Z,15.40
2022-11-19T07:34:30.436Z,15.80
2022-11-19T07:35:02.457Z,16.40
2022-11-19T07:35:34.781Z,16.70